createdAt,value
2018-09-29T00:01:12.319Z,97823.82
2018-09-29T00:03:42.494Z,97818.61
2018-09-29T00:06:10.676Z,97815.52
2018-09-29T00:08:39.397Z,97824.24
2018-09-29T00:11:06.896Z,97824.92
2018-09-29T00:13:34.195Z,97827.88
2018-09-29T00:16:03.567Z,97824.72
2018-09-29T00:18:30.497Z,97825.50
2018-09-29T00:20:58.780Z,97831.60
2018-09-29T00:23:25.861Z,97833.77
2018-09-29T00:25:54.112Z,97831.73
2018-09-29T00:28:22.778Z,97832.83
2018-09-29T00:30:52.397Z,97831.56
2018-09-29T00:35:50.990Z,97833.62
2018-09-29T00:38:17.485Z,97835.87
2018-09-29T00:40:44.026Z,97842.18
2018-09-29T00:43:10.602Z,97842.45
2018-09-29T00:45:37.182Z,97834.97
2018-09-29T00:48:03.795Z,97826.20
2018-09-29T00:50:30.344Z,97823.92
2018-09-29T00:52:56.852Z,97826.56
2018-09-29T00:55:23.413Z,97820.95
2018-09-29T00:57:50.533Z,97827.37
2018-09-29T01:00:17.204Z,97830.05
2018-09-29T01:02:43.761Z,97825.20
2018-09-29T01:05:10.551Z,97828.20
2018-09-29T01:07:37.077Z,97828.30
2018-09-29T01:10:03.626Z,97830.47
2018-09-29T01:12:30.245Z,97833.22
2018-09-29T01:14:56.779Z,97845.14
2018-09-29T01:17:23.414Z,97853.50
2018-09-29T01:19:49.950Z,97861.23
2018-09-29T01:22:16.501Z,97861.97
2018-09-29T01:24:43.093Z,97859.20
2018-09-29T01:27:10.722Z,97856.70
2018-09-29T01:29:37.355Z,97851.88
2018-09-29T01:32:03.933Z,97861.88
2018-09-29T01:34:30.601Z,97872.16
2018-09-29T01:36:57.125Z,97881.31
2018-09-29T01:39:23.730Z,97878.96
2018-09-29T01:41:50.258Z,97875.56
2018-09-29T01:44:16.814Z,97869.04
2018-09-29T01:46:43.317Z,97871.50
2018-09-29T01:49:10.911Z,97874.69
2018-09-29T01:51:37.402Z,97877.27
2018-09-29T01:54:03.953Z,97871.47
2018-09-29T01:56:30.492Z,97876.38
2018-09-29T01:58:57.093Z,97879.03
2018-09-29T02:01:24.242Z,97877.83
2018-09-29T02:03:50.778Z,97883.06
2018-09-29T02:06:17.304Z,97887.58
2018-09-29T02:08:43.813Z,97889.36
2018-09-29T02:11:11.356Z,97884.23
2018-09-29T02:13:37.792Z,97884.75
2018-09-29T02:16:04.296Z,97888.12
2018-09-29T02:18:30.843Z,97891.66
2018-09-29T02:20:57.352Z,97898.70
2018-09-29T02:23:23.853Z,97902.25
2018-09-29T02:25:50.332Z,97903.71
2018-09-29T02:28:16.785Z,97904.55
2018-09-29T02:30:43.310Z,97899.65
2018-09-29T02:33:09.805Z,97902.61
2018-09-29T02:35:36.266Z,97907.27
2018-09-29T02:38:02.725Z,97905.81
2018-09-29T02:40:29.335Z,97901.84
2018-09-29T02:42:55.826Z,97898.37
2018-09-29T02:45:22.262Z,97893.12
2018-09-29T02:47:48.877Z,97896.80
2018-09-29T02:50:15.525Z,97900.25
2018-09-29T02:52:42.622Z,97910.98
2018-09-29T02:55:09.140Z,97910.04
2018-09-29T02:57:35.593Z,97922.27
2018-09-29T03:00:02.169Z,97921.24
2018-09-29T03:02:28.753Z,97920.34
2018-09-29T03:04:55.229Z,97917.27
2018-09-29T03:07:21.824Z,97926.52
2018-09-29T03:09:48.480Z,97937.96
2018-09-29T03:12:14.969Z,97934.21
2018-09-29T03:14:41.481Z,97933.48
2018-09-29T03:17:07.971Z,97934.93
2018-09-29T03:19:34.504Z,97941.14
2018-09-29T03:22:00.990Z,97952.17
2018-09-29T03:24:28.103Z,97950.63
2018-09-29T03:26:54.608Z,97964.95
2018-09-29T03:29:21.132Z,97967.63
2018-09-29T03:31:47.735Z,97970.38
2018-09-29T03:34:15.320Z,97969.88
2018-09-29T03:36:41.911Z,97986.52
2018-09-29T03:39:09.025Z,97981.11
2018-09-29T03:41:36.154Z,97980.70
2018-09-29T03:44:03.459Z,97991.39
2018-09-29T03:46:30.032Z,97993.79
2018-09-29T03:48:57.333Z,97989.87
2018-09-29T03:51:25.490Z,97991.21
2018-09-29T03:53:51.988Z,98000.30
2018-09-29T03:56:19.473Z,98003.47
2018-09-29T03:58:45.983Z,98011.37
2018-09-29T04:01:13.156Z,98005.05
2018-09-29T04:03:39.755Z,98010.38
2018-09-29T04:06:06.231Z,98012.05
2018-09-29T04:08:32.722Z,98015.95
2018-09-29T04:10:59.430Z,98022.40
2018-09-29T04:13:26.037Z,98023.31
2018-09-29T04:15:52.530Z,98023.85
2018-09-29T04:18:19.115Z,98024.19
2018-09-29T04:20:45.823Z,98009.58
2018-09-29T04:23:15.078Z,98009.14
2018-09-29T04:25:43.151Z,98018.18
2018-09-29T04:28:10.676Z,98023.59
2018-09-29T04:30:37.202Z,98026.66
2018-09-29T04:33:03.661Z,98028.43
2018-09-29T04:35:30.871Z,98030.95
2018-09-29T04:37:59.281Z,98028.91
2018-09-29T04:40:25.857Z,98035.58
2018-09-29T04:42:53.343Z,98038.52
2018-09-29T04:45:19.907Z,98045.16
2018-09-29T04:47:47.244Z,98043.34
2018-09-29T04:50:15.821Z,98054.65
2018-09-29T04:52:42.956Z,98062.48
2018-09-29T04:55:10.182Z,98061.76
2018-09-29T04:57:36.820Z,98067.13
2018-09-29T05:00:03.402Z,98054.09
2018-09-29T05:02:30.570Z,98059.63
2018-09-29T05:04:57.178Z,98052.81
2018-09-29T05:07:24.321Z,98051.08
2018-09-29T05:09:51.106Z,98056.91
2018-09-29T05:12:17.639Z,98062.48
2018-09-29T05:14:44.296Z,98067.66
2018-09-29T05:17:10.796Z,98071.88
2018-09-29T05:19:37.270Z,98067.89
2018-09-29T05:22:04.786Z,98068.91
2018-09-29T05:24:31.283Z,98066.83
2018-09-29T05:26:57.752Z,98079.06
2018-09-29T05:29:25.100Z,98082.19
2018-09-29T05:31:51.630Z,98093.92
2018-09-29T05:34:18.359Z,98095.90
2018-09-29T05:36:47.702Z,98106.61
2018-09-29T05:39:14.356Z,98109.73
2018-09-29T05:41:41.520Z,98131.48
2018-09-29T05:44:10.206Z,98134.68
2018-09-29T05:46:38.060Z,98143.16
2018-09-29T05:49:04.574Z,98144.41
2018-09-29T05:51:31.872Z,98144.09
2018-09-29T05:53:58.586Z,98146.17
2018-09-29T05:56:26.197Z,98146.66
2018-09-29T05:58:52.909Z,98150.22
2018-09-29T06:01:20.201Z,98148.72
2018-09-29T06:03:46.980Z,98148.50
2018-09-29T06:06:14.058Z,98154.70
2018-09-29T06:08:41.220Z,98153.66
2018-09-29T06:11:08.551Z,98160.70
2018-09-29T06:13:35.412Z,98166.56
2018-09-29T06:16:02.337Z,98166.86
2018-09-29T06:18:29.553Z,98175.17
2018-09-29T06:20:56.095Z,98171.24
2018-09-29T06:23:23.379Z,98176.95
2018-09-29T06:25:50.164Z,98177.55
2018-09-29T06:28:17.631Z,98179.64
2018-09-29T06:30:44.363Z,98176.14
2018-09-29T06:33:11.674Z,98181.71
2018-09-29T06:35:38.186Z,98186.81
2018-09-29T06:38:04.674Z,98185.89
2018-09-29T06:40:31.852Z,98188.93
2018-09-29T06:43:02.859Z,98194.53
2018-09-29T06:45:30.372Z,98198.03
2018-09-29T06:47:56.970Z,98205.08
2018-09-29T06:50:24.601Z,98208.45
2018-09-29T06:52:51.844Z,98207.80
2018-09-29T06:55:18.987Z,98207.23
2018-09-29T06:57:45.621Z,98205.39
2018-09-29T07:00:12.636Z,98209.12
2018-09-29T07:02:40.271Z,98217.80
2018-09-29T07:05:07.602Z,98218.48
2018-09-29T07:07:34.125Z,98224.80
2018-09-29T07:10:00.762Z,98233.27
2018-09-29T07:12:27.362Z,98227.62
2018-09-29T07:14:54.259Z,98228.66
2018-09-29T07:17:21.047Z,98230.70
2018-09-29T07:19:47.656Z,98225.00
2018-09-29T07:22:14.150Z,98222.72
2018-09-29T07:24:40.739Z,98230.70
2018-09-29T07:27:08.238Z,98228.05
2018-09-29T07:29:35.284Z,98227.41
2018-09-29T07:32:03.059Z,98234.47
2018-09-29T07:34:29.544Z,98244.69
2018-09-29T07:36:55.987Z,98244.34
2018-09-29T07:39:22.458Z,98252.90
2018-09-29T07:41:52.158Z,98247.03
2018-09-29T07:44:19.336Z,98249.49
2018-09-29T07:46:46.907Z,98247.15
2018-09-29T07:49:14.515Z,98242.57
2018-09-29T07:51:41.219Z,98250.25
2018-09-29T07:54:07.918Z,98248.91
2018-09-29T07:56:34.429Z,98253.98
2018-09-29T07:59:00.898Z,98257.05
2018-09-29T08:01:28.386Z,98255.79
2018-09-29T08:03:54.939Z,98259.55
2018-09-29T08:06:25.847Z,98254.47
2018-09-29T08:08:53.904Z,98260.07
2018-09-29T08:11:20.479Z,98263.81
2018-09-29T08:13:48.066Z,98266.38
2018-09-29T08:16:15.629Z,98265.63
2018-09-29T08:18:43.000Z,98266.83
2018-09-29T08:21:09.469Z,98263.87
2018-09-29T08:23:36.405Z,98265.27
2018-09-29T08:26:04.541Z,98257.38
2018-09-29T08:28:31.053Z,98268.02
2018-09-29T08:30:58.074Z,98267.28
2018-09-29T08:33:25.308Z,98275.09
2018-09-29T08:35:51.826Z,98277.30
2018-09-29T08:38:18.904Z,98281.02
2018-09-29T08:40:47.558Z,98285.53
2018-09-29T08:43:14.580Z,98289.50
2018-09-29T08:45:41.778Z,98281.42
2018-09-29T08:48:08.572Z,98288.52
2018-09-29T08:50:36.098Z,98285.71
2018-09-29T08:53:03.360Z,98291.13
2018-09-29T08:55:29.856Z,98290.44
2018-09-29T08:57:57.493Z,98291.05
2018-09-29T09:00:23.989Z,98294.58
2018-09-29T09:02:50.544Z,98293.83
2018-09-29T09:05:17.049Z,98295.43
2018-09-29T09:07:44.047Z,98290.36
2018-09-29T09:10:10.877Z,98295.70
2018-09-29T09:12:37.381Z,98294.00
2018-09-29T09:15:04.493Z,98292.42
2018-09-29T09:17:31.079Z,98293.45
2018-09-29T09:19:57.548Z,98291.69
2018-09-29T09:22:24.321Z,98294.75
2018-09-29T09:24:51.621Z,98295.17
2018-09-29T09:27:19.422Z,98297.95
2018-09-29T09:29:46.735Z,98285.11
2018-09-29T09:32:14.121Z,98288.09
2018-09-29T09:34:41.424Z,98279.63
2018-09-29T09:37:07.925Z,98270.11
2018-09-29T09:39:34.441Z,98266.58
2018-09-29T09:42:01.494Z,98275.16
2018-09-29T09:44:28.817Z,98275.55
2018-09-29T09:46:56.122Z,98270.36
2018-09-29T09:49:22.923Z,98269.92
2018-09-29T09:51:49.525Z,98277.87
2018-09-29T09:54:17.006Z,98275.09
2018-09-29T09:56:43.614Z,98272.92
2018-09-29T09:59:11.523Z,98270.17
2018-09-29T10:01:38.555Z,98275.76
2018-09-29T10:04:05.081Z,98272.16
2018-09-29T10:06:31.826Z,98281.70
2018-09-29T10:08:58.745Z,98276.75
2018-09-29T10:11:26.022Z,98271.80
2018-09-29T10:13:52.699Z,98275.76
2018-09-29T10:16:23.965Z,98275.16
2018-09-29T10:18:52.429Z,98277.56
2018-09-29T10:21:20.085Z,98278.55
2018-09-29T10:23:48.208Z,98274.38
2018-09-29T10:26:16.183Z,98270.68
2018-09-29T10:28:43.271Z,98258.55
2018-09-29T10:31:10.440Z,98258.17
2018-09-29T10:33:36.953Z,98252.16
2018-09-29T10:36:04.890Z,98256.30
2018-09-29T10:38:32.990Z,98262.19
2018-09-29T10:41:00.170Z,98261.34
2018-09-29T10:43:27.681Z,98262.63
2018-09-29T10:45:54.182Z,98263.37
2018-09-29T10:48:20.667Z,98255.77
2018-09-29T10:50:47.730Z,98251.42
2018-09-29T10:53:14.468Z,98241.63
2018-09-29T10:55:41.077Z,98238.75
2018-09-29T10:58:08.133Z,98233.13
2018-09-29T11:00:35.282Z,98226.92
2018-09-29T11:03:02.321Z,98223.25
2018-09-29T11:05:28.886Z,98220.84
2018-09-29T11:07:55.739Z,98224.30
2018-09-29T11:10:22.971Z,98222.19
2018-09-29T11:12:50.540Z,98211.64
2018-09-29T11:15:17.467Z,98208.94
2018-09-29T11:17:45.392Z,98207.80
2018-09-29T11:20:11.850Z,98204.89
2018-09-29T11:22:38.676Z,98195.47
2018-09-29T11:25:05.179Z,98194.44
2018-09-29T11:27:31.725Z,98199.67
2018-09-29T11:30:01.460Z,98196.20
2018-09-29T11:32:30.126Z,98192.06
2018-09-29T11:34:56.624Z,98198.27
2018-09-29T11:37:23.558Z,98194.92
2018-09-29T11:39:50.126Z,98191.53
2018-09-29T11:42:17.735Z,98185.20
2018-09-29T11:44:44.922Z,98178.92
2018-09-29T11:47:12.457Z,98180.34
2018-09-29T11:49:39.128Z,98174.55
2018-09-29T11:52:05.818Z,98173.86
2018-09-29T11:54:32.332Z,98164.63
2018-09-29T11:56:58.972Z,98168.07
2018-09-29T11:59:26.747Z,98159.11
2018-09-29T12:01:55.067Z,98163.52
2018-09-29T12:04:21.816Z,98158.25
2018-09-29T12:06:49.310Z,98150.88
2018-09-29T12:09:15.810Z,98149.83
2018-09-29T12:11:43.266Z,98148.81
2018-09-29T12:14:10.009Z,98144.11
2018-09-29T12:16:36.829Z,98146.31
2018-09-29T12:19:04.120Z,98144.72
2018-09-29T12:24:02.845Z,98149.72
2018-09-29T12:26:30.185Z,98148.58
2018-09-29T12:28:56.675Z,98156.33
2018-09-29T12:31:24.195Z,98159.20
2018-09-29T12:33:50.696Z,98156.31
2018-09-29T12:36:17.407Z,98158.74
2018-09-29T12:38:45.033Z,98162.53
2018-09-29T12:41:11.655Z,98157.50
2018-09-29T12:43:38.247Z,98168.03
2018-09-29T12:46:05.039Z,98157.31
2018-09-29T12:48:32.147Z,98156.34
2018-09-29T12:51:00.081Z,98153.06
2018-09-29T12:53:26.678Z,98149.77
2018-09-29T12:55:53.173Z,98153.78
2018-09-29T12:58:21.024Z,98147.48
2018-09-29T13:00:47.510Z,98150.42
2018-09-29T13:03:14.729Z,98147.06
2018-09-29T13:05:42.078Z,98151.69
2018-09-29T13:08:08.603Z,98157.17
2018-09-29T13:10:35.985Z,98152.97
2018-09-29T13:13:03.222Z,98142.30
2018-09-29T13:15:30.978Z,98143.98
2018-09-29T13:17:57.506Z,98147.64
2018-09-29T13:20:25.262Z,98141.80
2018-09-29T13:22:52.530Z,98146.16
2018-09-29T13:25:19.166Z,98144.71
2018-09-29T13:27:46.284Z,98139.48
2018-09-29T13:30:15.228Z,98129.72
2018-09-29T13:32:42.013Z,98144.44
2018-09-29T13:35:08.687Z,98138.84
2018-09-29T13:37:35.928Z,98134.65
2018-09-29T13:40:03.641Z,98137.45
2018-09-29T13:42:31.160Z,98135.47
2018-09-29T13:44:58.850Z,98138.66
2018-09-29T13:47:26.360Z,98144.94
2018-09-29T13:49:53.049Z,98151.27
2018-09-29T13:52:20.347Z,98147.48
2018-09-29T13:54:47.546Z,98141.02
2018-09-29T13:57:14.869Z,98145.25
2018-09-29T13:59:41.647Z,98147.97
2018-09-29T14:02:08.236Z,98143.27
2018-09-29T14:04:36.157Z,98148.52
2018-09-29T14:07:03.269Z,98144.39
2018-09-29T14:09:30.449Z,98155.17
2018-09-29T14:11:57.041Z,98158.53
2018-09-29T14:14:23.618Z,98152.96
2018-09-29T14:16:50.143Z,98148.73
2018-09-29T14:19:16.854Z,98153.70
2018-09-29T14:21:44.067Z,98148.30
2018-09-29T14:24:11.699Z,98157.63
2018-09-29T14:26:38.289Z,98158.70
2018-09-29T14:29:05.824Z,98166.11
2018-09-29T14:31:32.340Z,98164.41
2018-09-29T14:33:59.336Z,98162.94
2018-09-29T14:36:25.861Z,98171.03
2018-09-29T14:38:52.455Z,98168.50
2018-09-29T14:41:19.201Z,98174.11
2018-09-29T14:43:45.929Z,98175.94
2018-09-29T14:46:12.384Z,98180.73
2018-09-29T14:48:39.026Z,98186.30
2018-09-29T14:51:05.776Z,98186.86
2018-09-29T14:53:32.729Z,98187.19
2018-09-29T14:56:00.328Z,98188.80
2018-09-29T14:58:27.313Z,98186.86
2018-09-29T15:00:54.048Z,98188.77
2018-09-29T15:03:21.109Z,98185.64
2018-09-29T15:05:47.764Z,98191.20
2018-09-29T15:08:14.332Z,98194.45
2018-09-29T15:10:42.269Z,98187.43
2018-09-29T15:13:09.574Z,98193.47
2018-09-29T15:15:36.368Z,98194.69
2018-09-29T15:18:03.650Z,98188.80
2018-09-29T15:20:30.469Z,98187.95
2018-09-29T15:22:58.232Z,98195.55
2018-09-29T15:25:26.601Z,98200.56
2018-09-29T15:27:53.228Z,98201.40
2018-09-29T15:30:19.860Z,98206.23
2018-09-29T15:32:46.599Z,98206.16
2018-09-29T15:35:13.411Z,98207.88
2018-09-29T15:37:40.316Z,98210.00
2018-09-29T15:40:07.680Z,98214.52
2018-09-29T15:42:34.195Z,98208.92
2018-09-29T15:45:00.911Z,98211.25
2018-09-29T15:47:27.600Z,98210.55
2018-09-29T15:49:57.225Z,98211.91
2018-09-29T15:52:24.323Z,98210.70
2018-09-29T15:54:50.889Z,98214.72
2018-09-29T15:57:18.498Z,98211.80
2018-09-29T15:59:46.717Z,98214.98
2018-09-29T16:02:13.489Z,98214.73
2018-09-29T16:04:40.498Z,98208.73
2018-09-29T16:07:09.909Z,98207.98
2018-09-29T16:09:36.694Z,98209.02
2018-09-29T16:12:03.599Z,98210.02
2018-09-29T16:14:31.289Z,98217.32
2018-09-29T16:16:59.021Z,98219.80
2018-09-29T16:19:25.575Z,98225.74
2018-09-29T16:21:52.929Z,98226.67
2018-09-29T16:24:20.109Z,98231.92
2018-09-29T16:26:46.729Z,98225.30
2018-09-29T16:29:13.484Z,98227.13
2018-09-29T16:31:40.527Z,98231.11
2018-09-29T16:34:08.376Z,98229.03
2018-09-29T16:36:36.942Z,98224.36
2018-09-29T16:39:03.697Z,98231.53
2018-09-29T16:41:31.990Z,98237.23
2018-09-29T16:43:58.577Z,98240.41
2018-09-29T16:46:25.345Z,98241.94
2018-09-29T16:48:52.508Z,98253.48
2018-09-29T16:51:19.278Z,98254.72
2018-09-29T16:53:45.969Z,98260.20
2018-09-29T16:56:13.582Z,98259.71
2018-09-29T16:58:40.112Z,98266.39
2018-09-29T17:01:06.874Z,98263.30
2018-09-29T17:03:33.434Z,98267.97
2018-09-29T17:06:00.727Z,98267.16
2018-09-29T17:08:28.176Z,98273.09
2018-09-29T17:10:55.673Z,98274.10
2018-09-29T17:13:23.344Z,98280.61
2018-09-29T17:15:50.133Z,98285.14
2018-09-29T17:18:16.884Z,98297.55
2018-09-29T17:20:43.641Z,98300.08
2018-09-29T17:23:10.268Z,98300.24
2018-09-29T17:25:38.729Z,98301.30
2018-09-29T17:28:05.872Z,98304.80
2018-09-29T17:30:33.079Z,98310.80
2018-09-29T17:33:00.396Z,98314.21
2018-09-29T17:35:27.715Z,98315.59
2018-09-29T17:37:54.197Z,98314.73
2018-09-29T17:40:20.896Z,98318.97
2018-09-29T17:42:52.419Z,98319.23
2018-09-29T17:45:19.742Z,98322.85
2018-09-29T17:47:46.635Z,98319.95
2018-09-29T17:50:13.788Z,98323.66
2018-09-29T17:52:41.648Z,98324.99
2018-09-29T17:57:41.602Z,98333.10
2018-09-29T18:00:08.320Z,98328.77
2018-09-29T18:02:34.956Z,98330.16
2018-09-29T18:05:01.703Z,98323.85
2018-09-29T18:07:28.227Z,98329.58
2018-09-29T18:09:55.232Z,98330.75
2018-09-29T18:12:22.430Z,98333.25
2018-09-29T18:14:49.929Z,98331.59
2018-09-29T18:17:17.212Z,98339.61
2018-09-29T18:19:44.560Z,98333.63
2018-09-29T18:22:11.815Z,98343.00
2018-09-29T18:24:38.301Z,98345.86
2018-09-29T18:27:05.011Z,98344.45
2018-09-29T18:29:32.782Z,98341.02
2018-09-29T18:31:59.303Z,98336.59
2018-09-29T18:36:58.556Z,98353.26
2018-09-29T18:39:25.214Z,98354.71
2018-09-29T18:41:52.376Z,98360.51
2018-09-29T18:44:21.209Z,98366.23
2018-09-29T18:46:48.497Z,98368.97
2018-09-29T18:49:15.156Z,98373.80
2018-09-29T18:51:41.921Z,98373.19
2018-09-29T18:54:08.674Z,98374.02
2018-09-29T18:56:35.855Z,98380.48
2018-09-29T18:59:02.447Z,98384.98
2018-09-29T19:01:28.944Z,98381.38
2018-09-29T19:03:56.217Z,98381.33
2018-09-29T19:06:22.808Z,98387.23
2018-09-29T19:08:49.952Z,98388.04
2018-09-29T19:11:17.894Z,98391.88
2018-09-29T19:13:44.997Z,98396.38
2018-09-29T19:16:12.481Z,98389.28
2018-09-29T19:18:39.149Z,98389.48
2018-09-29T19:21:06.417Z,98400.82
2018-09-29T19:23:33.094Z,98400.02
2018-09-29T19:26:00.746Z,98398.71
2018-09-29T19:28:27.402Z,98392.55
2018-09-29T19:30:54.068Z,98401.33
2018-09-29T19:33:20.699Z,98399.45
2018-09-29T19:35:47.543Z,98408.08
2018-09-29T19:38:14.329Z,98406.27
2018-09-29T19:40:41.707Z,98405.06
2018-09-29T19:43:08.897Z,98401.63
2018-09-29T19:45:36.045Z,98402.25
2018-09-29T19:48:03.299Z,98408.13
2018-09-29T19:50:30.159Z,98403.53
2018-09-29T19:52:56.652Z,98408.16
2018-09-29T19:55:23.358Z,98400.78
2018-09-29T19:57:50.533Z,98397.48
2018-09-29T20:00:17.422Z,98401.41
2018-09-29T20:02:46.024Z,98391.04
2018-09-29T20:05:12.473Z,98391.22
2018-09-29T20:07:38.996Z,98403.22
2018-09-29T20:10:06.278Z,98394.36
2018-09-29T20:12:34.462Z,98398.95
2018-09-29T20:15:01.741Z,98401.42
2018-09-29T20:17:28.257Z,98400.44
2018-09-29T20:19:55.890Z,98400.27
2018-09-29T20:22:22.385Z,98396.64
2018-09-29T20:24:49.427Z,98394.36
2018-09-29T20:27:16.712Z,98399.28
2018-09-29T20:29:43.382Z,98401.27
2018-09-29T20:32:09.955Z,98402.89
2018-09-29T20:34:36.575Z,98395.16
2018-09-29T20:37:03.600Z,98400.25
2018-09-29T20:39:30.673Z,98396.97
2018-09-29T20:41:57.408Z,98397.12
2018-09-29T20:44:24.249Z,98399.08
2018-09-29T20:46:50.896Z,98399.87
2018-09-29T20:49:17.400Z,98405.65
2018-09-29T20:51:44.179Z,98402.72
2018-09-29T20:54:11.636Z,98401.41
2018-09-29T20:56:38.514Z,98405.70
2018-09-29T20:59:05.034Z,98408.48
2018-09-29T21:01:31.698Z,98411.28
2018-09-29T21:03:58.594Z,98410.47
2018-09-29T21:06:25.852Z,98413.27
2018-09-29T21:08:52.925Z,98412.38
2018-09-29T21:11:21.337Z,98418.53
2018-09-29T21:13:48.437Z,98414.09
2018-09-29T21:16:15.989Z,98409.97
2018-09-29T21:18:42.507Z,98412.77
2018-09-29T21:21:09.033Z,98411.11
2018-09-29T21:23:37.267Z,98412.52
2018-09-29T21:26:04.011Z,98408.20
2018-09-29T21:28:31.748Z,98405.12
2018-09-29T21:30:59.203Z,98408.72
2018-09-29T21:33:27.434Z,98406.77
2018-09-29T21:35:54.118Z,98411.11
2018-09-29T21:38:20.751Z,98413.45
2018-09-29T21:40:48.397Z,98410.63
2018-09-29T21:43:15.070Z,98412.97
2018-09-29T21:45:44.682Z,98415.19
2018-09-29T21:48:11.711Z,98406.45
2018-09-29T21:50:38.511Z,98409.51
2018-09-29T21:55:37.464Z,98409.03
2018-09-29T21:58:04.101Z,98411.64
2018-09-29T22:00:31.353Z,98415.70
2018-09-29T22:05:31.261Z,98406.03
2018-09-29T22:07:57.886Z,98406.63
2018-09-29T22:10:24.362Z,98404.05
2018-09-29T22:12:51.704Z,98407.80
2018-09-29T22:15:18.957Z,98405.66
2018-09-29T22:17:46.541Z,98402.66
2018-09-29T22:20:13.315Z,98397.53
2018-09-29T22:22:41.105Z,98396.88
2018-09-29T22:25:08.188Z,98401.09
2018-09-29T22:27:35.335Z,98392.00
2018-09-29T22:30:02.032Z,98391.55
2018-09-29T22:32:28.621Z,98392.22
2018-09-29T22:34:55.153Z,98391.53
2018-09-29T22:37:21.815Z,98393.13
2018-09-29T22:39:49.198Z,98390.24
2018-09-29T22:42:15.917Z,98386.59
2018-09-29T22:44:43.566Z,98387.63
2018-09-29T22:47:10.329Z,98385.21
2018-09-29T22:49:38.174Z,98385.02
2018-09-29T22:52:05.403Z,98387.08
2018-09-29T22:54:32.591Z,98384.25
2018-09-29T22:56:59.159Z,98382.27
2018-09-29T22:59:25.672Z,98372.55
2018-09-29T23:01:52.897Z,98373.09
2018-09-29T23:04:20.369Z,98365.72
2018-09-29T23:06:47.295Z,98372.08
2018-09-29T23:09:15.308Z,98369.47
2018-09-29T23:11:41.908Z,98369.98
2018-09-29T23:14:08.564Z,98368.04
2018-09-29T23:16:35.185Z,98363.32
2018-09-29T23:19:02.502Z,98362.74
2018-09-29T23:21:29.793Z,98359.20
2018-09-29T23:23:56.445Z,98367.83
2018-09-29T23:26:24.780Z,98363.01
2018-09-29T23:28:51.594Z,98362.30
2018-09-29T23:31:18.812Z,98363.88
2018-09-29T23:33:49.073Z,98367.34
2018-09-29T23:36:16.307Z,98366.33
2018-09-29T23:38:43.098Z,98366.62
2018-09-29T23:41:11.186Z,98364.03
2018-09-29T23:43:37.698Z,98366.55
2018-09-29T23:46:04.280Z,98358.69
2018-09-29T23:48:31.623Z,98354.84
2018-09-29T23:50:58.284Z,98359.55
2018-09-29T23:53:25.774Z,98355.33
2018-09-29T23:55:53.397Z,98347.17
2018-09-29T23:58:20.642Z,98342.76
